logo
Games tagged Asymmetric VR
# Game Release date
Price
Score rank
(Userscore / Metascore)
Owners
Players
Playtime (Median)
Developer(s)
Publisher(s)
1 GORN Jul 18, 2019 $19.99N/A (N/A/85%)200,000 .. 500,0003.57%00:06 (00:03)Free LivesDevolver Digital
2 The Persistence May 20, 2020 $29.99N/A (N/A/75%)20,000 .. 50,0000%00:00 (00:00)Firesprite LtdFiresprite Ltd
3 Keep Talking and Nobody Explodes Oct 8, 2015 $5.99N/A (N/A/71%)1,000,000 .. 2,000,0000.8%01:00 (00:30)Steel Crate GamesSteel Crate Games
4 FreeDraw Mar 3, 2021 FreeN/A (N/A)0 .. 20,0000%00:00 (00:00)BancoBancoGames
5 Bulk Dominoes VR: Kinetic Rush Nov 24, 2020 FreeN/A (N/A)0 .. 20,0000%00:00 (00:00)GuessworkVRBulk Dominoes
6 Nuri VR - Coding Oct 30, 2020 FreeN/A (N/A)20,000 .. 50,0000%00:00 (00:00)PrismMediaPrismMedia
7 Learn Spanish VR Sep 17, 2020 FreeN/A (N/A)0 .. 20,0000%00:00 (00:00)Ricardo Alonso PinaRicardo Alonso Pina
8 OUBEY VR – Reise der Monaden Aug 11, 2020 FreeN/A (N/A)20,000 .. 50,0000%00:00 (00:00)Kubikfoto GmbHKubikfoto GmbH
9 OUBEY VR – Cosmic Voyage Aug 11, 2020 FreeN/A (N/A)0 .. 20,0000%00:00 (00:00)Kubikfoto GmbHKubikfoto GmbH
10 OUBEY VR - Samurai Jul 20, 2020 FreeN/A (N/A)50,000 .. 100,0000%00:00 (00:00)Kubikfoto GmbHKubikfoto GmbH
11 Groove Fit Kingdom! Jul 18, 2020 N/AN/A (N/A)0 .. 20,0000%00:00 (00:00)Ima Create Co., Ltd.Ima Create Co., Ltd.
12 illuminati Simulator VR Jul 17, 2020 FreeN/A (N/A)0 .. 20,0000%00:00 (00:00)Ricardo Alonso PinaRicardo Alonso Pina
13 Wacktory Sep 13, 2019 FreeN/A (N/A)0 .. 20,0000%00:00 (00:00)Talon Baker, Dustin Halsey, Salvador Galindo, Josh Clouse, Jeremy Lafond, Zack Lawrence, Reed Scriven, Sandra Tiu Latt, Nichole Wilkinson, Terence So, Herman Wu, Taylor ReylandTechnical Fowl games
14 Sophie's Guardian Oct 31, 2018 FreeN/A (N/A)0 .. 20,0000%00:00 (00:00)GameCoder Studios, Render Farm StudiosGameCoder Studios, Render Farm Studios
15 Protonwar Mar 15, 2018 FreeN/A (N/A)0 .. 20,0000%00:00 (00:00)Outer Planet StudiosOuter Planet Studios
16 Sommad Aug 7, 2017 FreeN/A (N/A)0 .. 20,0000%00:00 (00:00)Rovango StudioRovango Studio
17 Nemesis Perspective Dec 21, 2016 FreeN/A (N/A)0 .. 20,0000%00:00 (00:00)Evocat GamesKajak Games
18 FOREWARNED Apr 25, 2024 $12.99N/A (N/A)200,000 .. 500,0000%00:00 (00:00)Dreambyte GamesDreambyte Games
19 Do U Copy? Mar 5, 2024 $12.99N/A (N/A)0 .. 20,0000%00:00 (00:00)Freaks UnitedFreaks United
20 Nightmare Labyrinth Feb 26, 2024 $9.99N/A (N/A)0 .. 20,0000%00:00 (00:00)Last-Mag StudiosLast-Mag Studios
21 The Great Ocean Feb 15, 2024 $9.99N/A (N/A)0 .. 20,0000%00:00 (00:00)Actrio StudioActrio Studio
22 Shave & Stuff Nov 10, 2023 $14.99N/A (N/A)0 .. 20,0000%00:00 (00:00)HyperVR GamesHyperVR Games
23 INVERSE Nov 3, 2023 $14.99N/A (N/A)0 .. 20,0000%00:00 (00:00)MassVR LLCMassVR LLC
24 OctoRaid VR Oct 31, 2023 $9.99N/A (N/A)0 .. 20,0000%00:00 (00:00)BLENSBLENS
25 Starri Oct 1, 2023 $17.99N/A (N/A)0 .. 20,000100%00:12 (00:12)NexNex
26 FitnessVR Sep 4, 2023 $24.99N/A (N/A)0 .. 20,0000%00:00 (00:00)Blackant Master StudioBlackant Master Studio
27 The Sandwich Making Experience Jun 26, 2023 $5.99N/A (N/A)0 .. 20,0000%00:00 (00:00)Bendy Bananas Creative LLCBendy Bananas Creative LLC
28 VR Giants Jun 14, 2023 $19.99N/A (N/A)0 .. 20,0000%00:00 (00:00)Risa InteractiveRisa Interactive
29 Galactic Conquest Battle Infinity May 22, 2023 $9.99N/A (N/A)0 .. 20,0000%00:00 (00:00)Dennys LaraDenvzla Estudio
30 Paranormal Hunter May 21, 2023 $9.99N/A (N/A)0 .. 20,0000%00:00 (00:00)EALoGAMESEALoGAMES
31 Fast and Low Apr 12, 2023 $20.99N/A (N/A)20,000 .. 50,0000%00:00 (00:00)Urban Giraffe Games Inc.Urban Giraffe Games Inc.
32 NOT ME Mar 2, 2023 $19.99N/A (N/A)0 .. 20,0000%00:00 (00:00)storm gamestorm game
33 Can Gym Break This? Dec 19, 2022 $9.99N/A (N/A)0 .. 20,0000%00:00 (00:00)Harsh BakshiSkrots Game Studios
34 Free My Sight Oct 17, 2022 $1.99N/A (N/A)0 .. 20,0000%00:00 (00:00)Fabio CecchiniFabio Cecchini
35 The Peak Climb VR Sep 22, 2022 $4.99N/A (N/A)0 .. 20,0000%00:00 (00:00)Srio VR StudioSrio VR Studio
36 Smash The Synth Sep 13, 2022 $6.99N/A (N/A)0 .. 20,0000%00:00 (00:00)Fabio CecchiniFabio Cecchini
37 CLASHBOWL Aug 20, 2022 $0.99N/A (N/A)0 .. 20,0000%00:00 (00:00)Proeminent Code SRLProeminent Code SRL
38 JAM GODS Jul 18, 2022 $4.99N/A (N/A)0 .. 20,0000%00:00 (00:00)Static WildStatic Wild
39 Escape From Mandrillia: Local Asymmetric VR vs PC Jul 18, 2022 $12.99N/A (N/A)0 .. 20,0000%00:00 (00:00)German BanderaGerman Bandera
40 Groove Fit Island!! Jun 13, 2022 N/AN/A (N/A)0 .. 20,0000%00:00 (00:00)Ima Create Co., Ltd.Ima Create Co., Ltd.
41 Xpraize Beta May 31, 2022 $14.99N/A (N/A)0 .. 20,0000%00:00 (00:00)RedefineArts.IncRedefineArts.Inc
42 A Siren's Call VR: Death Comes At Night Apr 20, 2022 N/AN/A (N/A)0 .. 20,0000%00:00 (00:00)Siren Ember'sSiren Ember's
43 HeadCount Apr 18, 2022 $9.99N/A (N/A)0 .. 20,0000%00:00 (00:00)Monochrome, IncMonochrome, Inc
44 IronWolf VR Apr 12, 2022 $19.99N/A (N/A)20,000 .. 50,0000%00:00 (00:00)Ionized StudiosIonized Studios
45 VR LightingClimbing Mar 31, 2022 $2.99N/A (N/A)0 .. 20,0000%00:00 (00:00)光驱游戏光驱游戏
46 Work At Height VR Training Mar 20, 2022 FreeN/A (N/A)0 .. 20,0000%00:00 (00:00)GVR Training Computer SoftwareGVR Training Computer Software
47 Lockout Tagout (LOTO) VR Training Mar 20, 2022 FreeN/A (N/A)0 .. 20,0000%00:00 (00:00)GVR Training Computer SoftwareGVR Training Computer Software
48 Hot Work VR Training Mar 17, 2022 FreeN/A (N/A)0 .. 20,0000%00:00 (00:00)GVR Training Computer SoftwareGVR Training Computer Software
49 Sci-Fantasy Defence Mar 14, 2022 $19.99N/A (N/A)0 .. 20,0000%00:00 (00:00)Ivan ChernyakovIvan Chernyakov
50 Fireworks Show VR Feb 22, 2022 $4.99N/A (N/A)0 .. 20,0000%00:00 (00:00)Monduz GamesMonduz Games
51 Helm or High Water Feb 17, 2022 $14.99N/A (N/A)0 .. 20,0000%00:00 (00:00)Jordan HobgoodJordan Hobgood
52 Shooter's Island Jan 29, 2022 $0.99N/A (N/A)20,000 .. 50,0000%00:00 (00:00)Seminaut Game StudiosSeminaut Game Studios
53 VR Async Balls Jan 10, 2022 $2.99N/A (N/A)0 .. 20,0000%00:00 (00:00)AviahelAviahel
54 Confined Space Entry VR Training Dec 21, 2021 FreeN/A (N/A)0 .. 20,0000%00:00 (00:00)GVR Training Computer SoftwareGVR Training Computer Software
55 Alan and the kid Dec 16, 2021 $6.99N/A (N/A)0 .. 20,0000%00:00 (00:00)Barksquare ehfBarksquare ehf
56 Potato Party: Hash It Out Nov 25, 2021 $9.99N/A (N/A)0 .. 20,0000%00:00 (00:00)Fanaticus XRFanaticus XR
57 CYBRID Nov 19, 2021 $14.99N/A (N/A)50,000 .. 100,0000%00:00 (00:00)Tom ReasonSHADA GAMES
58 Five dreams Nov 18, 2021 $0.99N/A (N/A)20,000 .. 50,0000%00:00 (00:00)星环游戏星环互娱
59 Color Escape: VR Coop Oct 5, 2021 $8.99N/A (N/A)0 .. 20,0000%00:00 (00:00)La Compagnie des Projets SecondairesLa Compagnie des Projets Secondaires
60 City Air Battle Sep 30, 2021 $1.99N/A (N/A)0 .. 20,0000%00:00 (00:00)JS GAMEJS GAME
61 CURSED NIGHT - The House Sep 17, 2021 $0.79N/A (N/A)0 .. 20,0000%00:00 (00:00)VR Pirates Game StudioVR Pirates Game Studio
62 Undergrowth: VR Maze Sep 15, 2021 $19.99N/A (N/A)0 .. 20,0000%00:00 (00:00)Indigo AffectIndigo Affect
63 Seeker: My Shadow Aug 12, 2021 $19.99N/A (N/A)0 .. 20,0000%00:00 (00:00)JestercraftJestercraft
64 Pipe Dreamin' VR: The Big Easy Jul 26, 2021 $8.99N/A (N/A)0 .. 20,0000%00:00 (00:00)Top Right Corner, TRC DMITRC DMI
65 Dream Mirror Jul 24, 2021 $6.99N/A (N/A)0 .. 20,0000%00:00 (00:00)Dream MirrorDream Mirror
66 VR Game Station Jun 14, 2021 $10.99N/A (N/A)100,000 .. 200,0000%00:00 (00:00)Batuhan GünerBatuhan Güner
67 Fimbul Winter VR Jun 3, 2021 $1.99N/A (N/A)0 .. 20,0000%00:00 (00:00)Atomiq FabriqAtomiq Fabriq
68 Operation Armstrong May 18, 2021 $12.99N/A (N/A)0 .. 20,0000%00:00 (00:00)Fullbeans StudioFullbeans Studio
69 Planets Battle May 3, 2021 $99.99N/A (N/A)0 .. 20,0000%00:00 (00:00)HedeHede
70 Dream Catchers Apr 21, 2021 $0.99N/A (N/A)20,000 .. 50,0000%00:00 (00:00)AlimoliStudioAlimoliStudio
71 Broken Dungeon Apr 19, 2021 $14.99N/A (N/A)0 .. 20,0000%00:00 (00:00)SLAMS GamesSLAMS Games
72 Traffic Jams Apr 8, 2021 $9.99N/A (N/A)0 .. 20,0000%00:00 (00:00)Little Chicken Game CompanyVertigo Games
73 Shariiing VR Apr 8, 2021 N/AN/A (N/A)0 .. 20,0000%00:00 (00:00)ShariiingShariiing
74 A Wake Inn Feb 25, 2021 $19.99N/A (N/A)0 .. 20,0000%00:00 (00:00)VR BrosVR Bros
75 Click and Relax Feb 11, 2021 $9.99N/A (N/A)0 .. 20,0000%00:00 (00:00)HedeHede
76 Under Lock Jan 12, 2021 $9.99N/A (N/A)0 .. 20,0000%00:00 (00:00)NioTumNioTum
77 KILLING A SUPERSTAR Jan 5, 2021 $11.99N/A (N/A)0 .. 20,0000%00:00 (00:00)BEIJING IQIYI SCIENCE & TECHNOLOGY CO., LTD.BEIJING IQIYI SCIENCE & TECHNOLOGY CO., LTD.
78 Tall Order Dec 3, 2020 $6.99N/A (N/A)0 .. 20,0000%00:00 (00:00)Jonas MolgaardSticky Snout Studio
79 Beat the Nightmare – Evil Dreams Simulator VR Nov 13, 2020 $1.99N/A (N/A)20,000 .. 50,0000%00:00 (00:00)Imperian Online - HradecImperian Online - Hradec
80 Lights, Camera, Reaction! Oct 30, 2020 $9.99N/A (N/A)0 .. 20,0000%00:00 (00:00)FluxeanFluxean
81 Beach Ball Valley Oct 9, 2020 $2.99N/A (N/A)0 .. 20,0000%00:00 (00:00)Paul Eckhardt
82 Panoptic Oct 8, 2020 $16.99N/A (N/A)0 .. 20,0000%00:00 (00:00)Team PanoptesTeam Panoptes
83 Automata Break Sep 18, 2020 $19.99N/A (N/A)0 .. 20,0000%00:00 (00:00)Pumpkin Head StudioPumpkin Head Studio
84 Fairy Bubble Jul 14, 2024 $5.99N/A (N/A)0 .. 20,0000%00:00 (00:00)Claudia, MarcosCM Studio
85 Darkness Rollercoaster - Ultimate Shooter Edition Jul 24, 2020 $4.99N/A (N/A)0 .. 20,0000%00:00 (00:00)CREATIVE VR3DCREATIVE VR3D
86 Motoride Rollercoaster VR Jul 22, 2020 $3.99N/A (N/A)0 .. 20,0000%00:00 (00:00)Split Light StudioSplit Light Studio
87 PT+ Jun 30, 2020 $4.99N/A (N/A)50,000 .. 100,0000%00:00 (00:00)Liam McMainsAxis Technologies LLC
88 Matrix Blocks Jun 18, 2020 $4.99N/A (N/A)0 .. 20,0000%00:00 (00:00)NetDinamicaNetDinamica
89 A Ton Of Feathers Jan 25, 2020 $0.99N/A (N/A)20,000 .. 50,0000%00:00 (00:00)ben lunatoben lunato
90 Country Road VR Mar 12, 2020 $1.99N/A (N/A)0 .. 20,0000%00:00 (00:00)Somun Immersive, Elder's Choice, Inc.Elder's Choice, Inc.
91 Pizza Master VR Mar 6, 2020 $8.99N/A (N/A)0 .. 20,0000%00:00 (00:00)Plectrum XRPlectrum XR
92 Lost In Ferry VR Mar 2, 2020 $9.99N/A (N/A)0 .. 20,0000%00:00 (00:00)LZR GAMESLZR GAMES
93 SMUSH.TV - Competitive VR x PC Action Feb 27, 2020 $9.99N/A (N/A)0 .. 20,0000%00:00 (00:00)Cyberian StudiosCyberian Studios
94 Ayahuasca Jan 15, 2020 $12.99N/A (N/A)20,000 .. 50,0000%00:00 (00:00)Small Studio by Mac Guff, Atlas V, a_BAHNAstrea
95 Reiko's Fragments Oct 28, 2019 $4.99N/A (N/A)0 .. 20,0000%00:00 (00:00)Pixel Canvas IncPixel Canvas Inc
96 Chicks and Tricks VR Sep 26, 2019 $1.99N/A (N/A)0 .. 20,0000%00:00 (00:00)Shapeshift Entertainment ApSShapeshift Entertainment ApS
97 Acron: Attack of the Squirrels! Aug 29, 2019 $19.99N/A (N/A)0 .. 20,0000%00:00 (00:00)Resolution GamesResolution Games
98 Takelings House Party Jul 25, 2019 $19.99N/A (N/A)20,000 .. 50,0000%00:00 (00:00)DimnHouseDimnHouse
99 Tsuro - The Game of The Path - VR Edition Jul 18, 2019 $9.99N/A (N/A)0 .. 20,0000%00:00 (00:00)Thunderbox EntertainmentThunderbox Entertainment
100 CREEP RIDES May 30, 2019 $7.99N/A (N/A)0 .. 20,0000%00:00 (00:00)4 Fun Studio Inc.4 Fun Studio Inc.
101 VR Party Club Oct 14, 2018 $19.99N/A (N/A)0 .. 20,0000%00:00 (00:00)callenshaw indiegamescallenshaw indiegames
102 Carly and the Reaperman - Escape from the Underworld Jun 19, 2018 $19.99N/A (N/A)20,000 .. 50,0000%00:00 (00:00)Odd Raven StudiosOdd Raven Studios
103 Puppet Fever Apr 19, 2018 $14.99N/A (N/A)0 .. 20,0000%00:00 (00:00)Coastalbyte GamesCoffee Stain Publishing
104 V-Racer Hoverbike Apr 13, 2018 $19.99N/A (N/A)0 .. 20,0000%00:00 (00:00)VertexBreakersVertexBreakers
105 Nemesis Realms Apr 6, 2018 FreeN/A (N/A)0 .. 20,0000%00:00 (00:00)Evocat GamesEvocat Games
106 Eye in the Sky Dec 5, 2017 $9.99N/A (N/A)0 .. 20,0000%00:00 (00:00)VinLia GamesVinLia Games
107 Batter Up! VR Jul 17, 2017 $9.99N/A (N/A)0 .. 20,0000%00:00 (00:00)Polygon Dust Entertainment Ltd.Polygon Dust Entertainment Ltd.
108 Late For Work Jun 28, 2019 $14.99N/A (N/A)0 .. 20,0000%00:00 (00:00)Salmi GamesSalmi Games
109 Mass Exodus Redux May 4, 2017 $6.99N/A (N/A)50,000 .. 100,0000%00:00 (00:00)AltaireAltaire
110 Containment Initiative Apr 14, 2017 $9.99N/A (N/A)20,000 .. 50,0000%00:00 (00:00)Gwyn GamesGwyn Games
111 VR The Diner Duo Nov 2, 2016 $14.99N/A (N/A)50,000 .. 100,0000%00:00 (00:00)Whirlybird GamesWhirlybird Games
112 Blue Effect VR Sep 29, 2016 $9.99N/A (N/A)0 .. 20,0000%00:00 (00:00)DIVR LabsDIVR Labs
113 Black Hat Cooperative Jul 29, 2016 $9.99N/A (N/A)0 .. 20,0000%00:00 (00:00)Team Future LLCTeam Future LLC
Overview

Asymmetric VR

Games with this tag: 113
Average userscore: N/A%
Average metascore: 77%
Average playtime: 00:26
Total copies owned: 3,669,000
Average price: $11.72
Help

Owners: Estimated number of people owning this game. The number might be way too small for new releases and sometimes way too big for games that had free weekend event recently. Read more on About page.

Playtime: Average hours played in total per person that have actually launched this game since March 2009. This time is calculated for the whole lifetime, not for the particular year.

Average score: Average users and metacritic score for all games with this score assigned.

Average playtime: Average lifetime playtime for all games where this data is available.

Games in this genre: Self-explaining - number of games with this tag. Only inculdes games with sales data available.

Total copies owned: Refers to total copies of games with this tag acquired by users for the lifetime. Includes copies sold, downloaded for free and given out.

This number might be too small for recently released games or too big for games that had a free weekend in the last couple of months.

Graphs

Login required.

Please register or log in to see this information.

Login required.

Please register or log in to see this information.